sensor_id;sensor_type;location;lat;lon;timestamp;temperature;humidity
11112;DHT22;5609;49.466;8.468;2022-10-31T00:01:42;14.70;99.90
11112;DHT22;5609;49.466;8.468;2022-10-31T00:04:10;14.60;99.90
11112;DHT22;5609;49.466;8.468;2022-10-31T00:06:37;14.60;99.90
11112;DHT22;5609;49.466;8.468;2022-10-31T00:09:04;14.60;99.90
11112;DHT22;5609;49.466;8.468;2022-10-31T00:11:32;14.80;99.90
11112;DHT22;5609;49.466;8.468;2022-10-31T00:13:59;14.90;99.90
11112;DHT22;5609;49.466;8.468;2022-10-31T00:16:27;14.90;99.90
11112;DHT22;5609;49.466;8.468;2022-10-31T00:18:55;15.00;99.90
11112;DHT22;5609;49.466;8.468;2022-10-31T00:21:23;14.90;99.90
11112;DHT22;5609;49.466;8.468;2022-10-31T00:23:51;14.80;99.90
11112;DHT22;5609;49.466;8.468;2022-10-31T00:26:18;14.80;99.90
11112;DHT22;5609;49.466;8.468;2022-10-31T00:28:46;14.80;99.90
11112;DHT22;5609;49.466;8.468;2022-10-31T00:31:13;14.70;99.90
11112;DHT22;5609;49.466;8.468;2022-10-31T00:33:41;14.70;99.90
11112;DHT22;5609;49.466;8.468;2022-10-31T00:36:12;14.70;99.90
11112;DHT22;5609;49.466;8.468;2022-10-31T00:38:38;14.70;99.90
11112;DHT22;5609;49.466;8.468;2022-10-31T00:41:05;14.70;99.90
11112;DHT22;5609;49.466;8.468;2022-10-31T00:43:32;14.80;99.90
11112;DHT22;5609;49.466;8.468;2022-10-31T00:46:00;14.70;99.90
11112;DHT22;5609;49.466;8.468;2022-10-31T00:48:28;14.60;99.90
11112;DHT22;5609;49.466;8.468;2022-10-31T00:50:55;14.60;99.90
11112;DHT22;5609;49.466;8.468;2022-10-31T00:53:22;14.60;99.90
11112;DHT22;5609;49.466;8.468;2022-10-31T00:55:48;14.50;99.90
11112;DHT22;5609;49.466;8.468;2022-10-31T00:58:15;14.60;99.90
11112;DHT22;5609;49.466;8.468;2022-10-31T01:00:42;14.60;99.90
11112;DHT22;5609;49.466;8.468;2022-10-31T01:03:10;14.60;99.90
11112;DHT22;5609;49.466;8.468;2022-10-31T01:05:37;14.50;99.90
11112;DHT22;5609;49.466;8.468;2022-10-31T01:08:04;14.50;99.90
11112;DHT22;5609;49.466;8.468;2022-10-31T01:10:31;14.60;99.90
11112;DHT22;5609;49.466;8.468;2022-10-31T01:12:57;14.50;99.90
11112;DHT22;5609;49.466;8.468;2022-10-31T01:15:24;14.50;99.90
11112;DHT22;5609;49.466;8.468;2022-10-31T01:17:51;14.50;99.90
11112;DHT22;5609;49.466;8.468;2022-10-31T01:20:19;14.60;99.90
11112;DHT22;5609;49.466;8.468;2022-10-31T01:22:46;14.60;99.90
11112;DHT22;5609;49.466;8.468;2022-10-31T01:25:13;14.70;99.90
11112;DHT22;5609;49.466;8.468;2022-10-31T01:27:39;14.60;99.90
11112;DHT22;5609;49.466;8.468;2022-10-31T01:30:07;14.70;99.90
11112;DHT22;5609;49.466;8.468;2022-10-31T01:32:34;14.60;99.90
11112;DHT22;5609;49.466;8.468;2022-10-31T01:35:01;14.80;99.90
11112;DHT22;5609;49.466;8.468;2022-10-31T01:37:30;14.80;99.90
11112;DHT22;5609;49.466;8.468;2022-10-31T01:39:57;14.80;99.90
11112;DHT22;5609;49.466;8.468;2022-10-31T01:42:24;14.90;99.90
11112;DHT22;5609;49.466;8.468;2022-10-31T01:44:54;14.90;99.90
11112;DHT22;5609;49.466;8.468;2022-10-31T01:47:34;14.90;99.90
11112;DHT22;5609;49.466;8.468;2022-10-31T01:50:04;14.90;99.90
11112;DHT22;5609;49.466;8.468;2022-10-31T01:52:37;14.80;99.90
11112;DHT22;5609;49.466;8.468;2022-10-31T01:55:08;14.80;99.90
11112;DHT22;5609;49.466;8.468;2022-10-31T01:57:38;14.80;99.90
11112;DHT22;5609;49.466;8.468;2022-10-31T02:00:09;14.80;99.90
11112;DHT22;5609;49.466;8.468;2022-10-31T02:02:36;14.80;99.90
11112;DHT22;5609;49.466;8.468;2022-10-31T02:05:05;14.90;99.90
11112;DHT22;5609;49.466;8.468;2022-10-31T02:07:40;14.80;99.90
11112;DHT22;5609;49.466;8.468;2022-10-31T02:10:09;14.60;99.90
11112;DHT22;5609;49.466;8.468;2022-10-31T02:12:36;14.50;99.90
11112;DHT22;5609;49.466;8.468;2022-10-31T02:15:04;14.60;99.90
11112;DHT22;5609;49.466;8.468;2022-10-31T02:17:32;14.60;99.90
11112;DHT22;5609;49.466;8.468;2022-10-31T02:20:08;14.60;99.90
11112;DHT22;5609;49.466;8.468;2022-10-31T02:22:48;14.60;99.90
11112;DHT22;5609;49.466;8.468;2022-10-31T02:25:38;14.80;99.90
11112;DHT22;5609;49.466;8.468;2022-10-31T02:28:25;14.70;99.90
11112;DHT22;5609;49.466;8.468;2022-10-31T02:31:17;14.70;99.90
11112;DHT22;5609;49.466;8.468;2022-10-31T02:33:50;14.70;99.90
11112;DHT22;5609;49.466;8.468;2022-10-31T02:36:24;14.60;99.90
11112;DHT22;5609;49.466;8.468;2022-10-31T02:39:02;14.70;99.90
11112;DHT22;5609;49.466;8.468;2022-10-31T02:41:40;14.70;99.90
11112;DHT22;5609;49.466;8.468;2022-10-31T02:44:15;14.80;99.90
11112;DHT22;5609;49.466;8.468;2022-10-31T02:46:48;14.70;99.90
11112;DHT22;5609;49.466;8.468;2022-10-31T02:49:20;14.60;99.90
11112;DHT22;5609;49.466;8.468;2022-10-31T02:51:48;14.60;99.90
11112;DHT22;5609;49.466;8.468;2022-10-31T02:54:22;14.40;99.90
11112;DHT22;5609;49.466;8.468;2022-10-31T02:56:50;14.40;99.90
11112;DHT22;5609;49.466;8.468;2022-10-31T02:59:18;14.40;99.90
11112;DHT22;5609;49.466;8.468;2022-10-31T03:02:13;14.40;99.90
11112;DHT22;5609;49.466;8.468;2022-10-31T03:05:02;14.50;99.90
11112;DHT22;5609;49.466;8.468;2022-10-31T03:07:41;14.40;99.90
11112;DHT22;5609;49.466;8.468;2022-10-31T03:10:16;14.50;99.90
11112;DHT22;5609;49.466;8.468;2022-10-31T03:12:49;14.30;99.90
11112;DHT22;5609;49.466;8.468;2022-10-31T03:15:24;14.30;99.90
11112;DHT22;5609;49.466;8.468;2022-10-31T03:17:58;14.30;99.90
11112;DHT22;5609;49.466;8.468;2022-10-31T03:20:30;14.20;99.90
11112;DHT22;5609;49.466;8.468;2022-10-31T03:22:58;14.30;99.90
11112;DHT22;5609;49.466;8.468;2022-10-31T03:25:26;14.30;99.90
11112;DHT22;5609;49.466;8.468;2022-10-31T03:27:53;14.30;99.90
11112;DHT22;5609;49.466;8.468;2022-10-31T03:30:21;14.30;99.90
11112;DHT22;5609;49.466;8.468;2022-10-31T03:32:50;14.20;99.90
11112;DHT22;5609;49.466;8.468;2022-10-31T03:35:22;14.30;99.90
11112;DHT22;5609;49.466;8.468;2022-10-31T03:37:51;14.30;99.90
11112;DHT22;5609;49.466;8.468;2022-10-31T03:40:20;14.30;99.90
11112;DHT22;5609;49.466;8.468;2022-10-31T03:42:53;14.30;99.90
11112;DHT22;5609;49.466;8.468;2022-10-31T03:45:23;14.30;99.90
11112;DHT22;5609;49.466;8.468;2022-10-31T03:47:51;14.20;99.90
11112;DHT22;5609;49.466;8.468;2022-10-31T03:50:21;14.20;99.90
11112;DHT22;5609;49.466;8.468;2022-10-31T03:52:54;14.20;99.90
11112;DHT22;5609;49.466;8.468;2022-10-31T03:55:26;14.20;99.90
11112;DHT22;5609;49.466;8.468;2022-10-31T03:57:58;14.30;99.90
11112;DHT22;5609;49.466;8.468;2022-10-31T04:00:26;14.30;99.90
11112;DHT22;5609;49.466;8.468;2022-10-31T04:02:56;14.30;99.90
11112;DHT22;5609;49.466;8.468;2022-10-31T04:05:25;14.30;99.90
11112;DHT22;5609;49.466;8.468;2022-10-31T04:07:55;14.30;99.90
11112;DHT22;5609;49.466;8.468;2022-10-31T04:10:23;14.10;99.90
11112;DHT22;5609;49.466;8.468;2022-10-31T04:12:57;14.10;99.90
11112;DHT22;5609;49.466;8.468;2022-10-31T04:15:26;14.00;99.90
11112;DHT22;5609;49.466;8.468;2022-10-31T04:17:56;14.10;99.90
11112;DHT22;5609;49.466;8.468;2022-10-31T04:20:32;14.20;99.90
11112;DHT22;5609;49.466;8.468;2022-10-31T04:22:59;14.20;99.90
11112;DHT22;5609;49.466;8.468;2022-10-31T04:25:26;14.30;99.90
11112;DHT22;5609;49.466;8.468;2022-10-31T04:27:53;14.30;99.90
11112;DHT22;5609;49.466;8.468;2022-10-31T04:30:20;14.30;99.90
11112;DHT22;5609;49.466;8.468;2022-10-31T04:32:47;14.30;99.90
11112;DHT22;5609;49.466;8.468;2022-10-31T04:35:14;14.20;99.90
11112;DHT22;5609;49.466;8.468;2022-10-31T04:37:42;14.20;99.90
11112;DHT22;5609;49.466;8.468;2022-10-31T04:40:10;14.30;99.90
11112;DHT22;5609;49.466;8.468;2022-10-31T04:42:37;14.20;99.90
11112;DHT22;5609;49.466;8.468;2022-10-31T04:45:05;14.10;99.90
11112;DHT22;5609;49.466;8.468;2022-10-31T04:47:31;14.00;99.90
11112;DHT22;5609;49.466;8.468;2022-10-31T04:49:58;13.60;99.90
11112;DHT22;5609;49.466;8.468;2022-10-31T04:52:25;13.30;99.90
11112;DHT22;5609;49.466;8.468;2022-10-31T13:43:47;13.20;99.90
11112;DHT22;5609;49.466;8.468;2022-10-31T13:46:33;22.70;99.90
11112;DHT22;5609;49.466;8.468;2022-10-31T13:49:01;23.60;99.90
11112;DHT22;5609;49.466;8.468;2022-10-31T13:51:30;24.30;99.90
11112;DHT22;5609;49.466;8.468;2022-10-31T13:54:00;24.60;99.90
11112;DHT22;5609;49.466;8.468;2022-10-31T13:56:29;24.80;99.90
11112;DHT22;5609;49.466;8.468;2022-10-31T14:01:55;24.50;99.90
11112;DHT22;5609;49.466;8.468;2022-10-31T14:04:24;23.60;99.90
11112;DHT22;5609;49.466;8.468;2022-10-31T14:06:57;23.10;99.90
11112;DHT22;5609;49.466;8.468;2022-10-31T14:09:29;23.50;99.90
11112;DHT22;5609;49.466;8.468;2022-10-31T14:11:59;24.10;99.90
11112;DHT22;5609;49.466;8.468;2022-10-31T14:14:32;24.40;99.90
11112;DHT22;5609;49.466;8.468;2022-10-31T14:17:01;24.60;99.90
11112;DHT22;5609;49.466;8.468;2022-10-31T14:19:28;25.20;99.90
11112;DHT22;5609;49.466;8.468;2022-10-31T14:21:55;25.60;99.90
11112;DHT22;5609;49.466;8.468;2022-10-31T14:24:33;25.50;99.90
11112;DHT22;5609;49.466;8.468;2022-10-31T14:27:33;25.30;99.90
11112;DHT22;5609;49.466;8.468;2022-10-31T14:30:18;24.60;99.90
11112;DHT22;5609;49.466;8.468;2022-10-31T14:32:50;23.90;99.90
11112;DHT22;5609;49.466;8.468;2022-10-31T14:35:17;23.40;99.90
11112;DHT22;5609;49.466;8.468;2022-10-31T14:38:09;22.80;99.90
11112;DHT22;5609;49.466;8.468;2022-10-31T14:40:48;22.50;99.90
11112;DHT22;5609;49.466;8.468;2022-10-31T14:43:36;22.10;99.90
11112;DHT22;5609;49.466;8.468;2022-10-31T14:46:10;21.60;99.90
11112;DHT22;5609;49.466;8.468;2022-10-31T14:49:02;21.30;99.90
11112;DHT22;5609;49.466;8.468;2022-10-31T14:51:35;20.80;99.90
11112;DHT22;5609;49.466;8.468;2022-10-31T14:54:05;20.60;99.90
11112;DHT22;5609;49.466;8.468;2022-10-31T14:56:35;20.30;99.90
11112;DHT22;5609;49.466;8.468;2022-10-31T14:59:08;20.00;99.90
11112;DHT22;5609;49.466;8.468;2022-10-31T15:01:36;19.90;99.90
11112;DHT22;5609;49.466;8.468;2022-10-31T15:04:11;19.80;99.90
11112;DHT22;5609;49.466;8.468;2022-10-31T15:06:41;19.70;99.90
11112;DHT22;5609;49.466;8.468;2022-10-31T15:09:21;19.60;99.90
11112;DHT22;5609;49.466;8.468;2022-10-31T15:11:48;19.50;99.90
11112;DHT22;5609;49.466;8.468;2022-10-31T15:14:22;19.30;99.90
11112;DHT22;5609;49.466;8.468;2022-10-31T15:16:50;19.30;99.90
11112;DHT22;5609;49.466;8.468;2022-10-31T15:19:21;19.40;99.90
11112;DHT22;5609;49.466;8.468;2022-10-31T15:21:51;19.50;99.90
11112;DHT22;5609;49.466;8.468;2022-10-31T15:24:18;19.60;99.90
11112;DHT22;5609;49.466;8.468;2022-10-31T15:26:48;19.60;99.90
11112;DHT22;5609;49.466;8.468;2022-10-31T15:29:17;19.60;99.90
11112;DHT22;5609;49.466;8.468;2022-10-31T15:31:50;19.60;99.90
11112;DHT22;5609;49.466;8.468;2022-10-31T15:34:21;19.70;99.90
11112;DHT22;5609;49.466;8.468;2022-10-31T15:36:49;19.70;99.90
11112;DHT22;5609;49.466;8.468;2022-10-31T15:39:16;19.70;99.90
11112;DHT22;5609;49.466;8.468;2022-10-31T15:41:49;19.80;99.90
11112;DHT22;5609;49.466;8.468;2022-10-31T15:44:20;19.70;99.90
11112;DHT22;5609;49.466;8.468;2022-10-31T15:46:53;19.70;99.90
11112;DHT22;5609;49.466;8.468;2022-10-31T15:49:31;19.60;99.90
11112;DHT22;5609;49.466;8.468;2022-10-31T15:52:03;19.40;99.90
11112;DHT22;5609;49.466;8.468;2022-10-31T15:54:32;19.20;99.90
11112;DHT22;5609;49.466;8.468;2022-10-31T15:56:59;19.00;99.90
11112;DHT22;5609;49.466;8.468;2022-10-31T15:59:27;18.90;99.90
11112;DHT22;5609;49.466;8.468;2022-10-31T16:01:59;18.70;99.90
11112;DHT22;5609;49.466;8.468;2022-10-31T16:04:29;18.70;99.90
11112;DHT22;5609;49.466;8.468;2022-10-31T16:06:59;18.70;99.90
11112;DHT22;5609;49.466;8.468;2022-10-31T16:09:27;18.50;99.90
11112;DHT22;5609;49.466;8.468;2022-10-31T16:11:56;18.40;99.90
11112;DHT22;5609;49.466;8.468;2022-10-31T16:14:25;18.10;99.90
11112;DHT22;5609;49.466;8.468;2022-10-31T16:16:53;18.00;99.90
11112;DHT22;5609;49.466;8.468;2022-10-31T16:19:24;17.80;99.90
11112;DHT22;5609;49.466;8.468;2022-10-31T16:22:01;17.70;99.90
11112;DHT22;5609;49.466;8.468;2022-10-31T16:24:43;17.60;99.90
11112;DHT22;5609;49.466;8.468;2022-10-31T16:27:17;17.60;99.90
11112;DHT22;5609;49.466;8.468;2022-10-31T16:29:46;17.70;99.90
11112;DHT22;5609;49.466;8.468;2022-10-31T16:32:31;17.70;99.90
11112;DHT22;5609;49.466;8.468;2022-10-31T16:35:17;17.80;99.90
11112;DHT22;5609;49.466;8.468;2022-10-31T16:37:46;17.60;99.90
11112;DHT22;5609;49.466;8.468;2022-10-31T16:40:14;17.50;99.90
11112;DHT22;5609;49.466;8.468;2022-10-31T16:42:41;17.50;99.90
11112;DHT22;5609;49.466;8.468;2022-10-31T16:45:14;17.50;99.90
11112;DHT22;5609;49.466;8.468;2022-10-31T16:47:43;17.60;99.90
11112;DHT22;5609;49.466;8.468;2022-10-31T16:50:15;17.50;99.90
11112;DHT22;5609;49.466;8.468;2022-10-31T16:52:42;17.40;99.90
11112;DHT22;5609;49.466;8.468;2022-10-31T16:55:19;17.20;99.90
11112;DHT22;5609;49.466;8.468;2022-10-31T16:57:48;17.00;99.90
11112;DHT22;5609;49.466;8.468;2022-10-31T17:00:18;16.90;99.90
